sensor_id;sensor_type;location;lat;lon;timestamp;temperature;humidity
65419;DHT22;52027;50.658;14.004;2022-11-02T00:01:02;20.98;50.66
65419;DHT22;52027;50.658;14.004;2022-11-02T00:03:32;20.98;50.54
65419;DHT22;52027;50.658;14.004;2022-11-02T00:05:57;20.97;50.58
65419;DHT22;52027;50.658;14.004;2022-11-02T00:08:23;20.97;50.62
65419;DHT22;52027;50.658;14.004;2022-11-02T00:10:48;21.00;50.56
65419;DHT22;52027;50.658;14.004;2022-11-02T00:13:13;21.00;50.59
65419;DHT22;52027;50.658;14.004;2022-11-02T00:15:38;20.98;50.54
65419;DHT22;52027;50.658;14.004;2022-11-02T00:18:07;20.98;50.61
65419;DHT22;52027;50.658;14.004;2022-11-02T00:20:35;20.98;50.51
65419;DHT22;52027;50.658;14.004;2022-11-02T00:23:01;21.01;50.53
65419;DHT22;52027;50.658;14.004;2022-11-02T00:25:27;21.01;50.50
65419;DHT22;52027;50.658;14.004;2022-11-02T00:27:53;21.00;50.48
65419;DHT22;52027;50.658;14.004;2022-11-02T00:30:19;21.01;50.51
65419;DHT22;52027;50.658;14.004;2022-11-02T00:32:44;21.00;50.48
65419;DHT22;52027;50.658;14.004;2022-11-02T00:35:10;21.00;50.44
65419;DHT22;52027;50.658;14.004;2022-11-02T00:37:35;21.03;50.42
65419;DHT22;52027;50.658;14.004;2022-11-02T00:40:01;21.01;50.41
65419;DHT22;52027;50.658;14.004;2022-11-02T00:42:26;21.03;50.41
65419;DHT22;52027;50.658;14.004;2022-11-02T00:44:52;21.03;50.46
65419;DHT22;52027;50.658;14.004;2022-11-02T00:47:17;21.03;50.36
65419;DHT22;52027;50.658;14.004;2022-11-02T00:49:42;21.03;50.36
65419;DHT22;52027;50.658;14.004;2022-11-02T00:52:08;21.01;50.43
65419;DHT22;52027;50.658;14.004;2022-11-02T00:54:33;21.04;50.35
65419;DHT22;52027;50.658;14.004;2022-11-02T00:56:59;21.06;50.35
65419;DHT22;52027;50.658;14.004;2022-11-02T00:59:24;21.04;50.35
65419;DHT22;52027;50.658;14.004;2022-11-02T01:01:50;21.06;50.35
65419;DHT22;52027;50.658;14.004;2022-11-02T01:04:16;21.04;50.37
65419;DHT22;52027;50.658;14.004;2022-11-02T01:06:44;21.07;50.28
65419;DHT22;52027;50.658;14.004;2022-11-02T01:09:11;21.06;50.28
65419;DHT22;52027;50.658;14.004;2022-11-02T01:11:39;21.06;50.27
65419;DHT22;52027;50.658;14.004;2022-11-02T01:14:04;21.06;50.25
65419;DHT22;52027;50.658;14.004;2022-11-02T01:16:30;21.06;50.26
65419;DHT22;52027;50.658;14.004;2022-11-02T01:18:56;21.04;50.25
65419;DHT22;52027;50.658;14.004;2022-11-02T01:21:22;21.04;50.23
65419;DHT22;52027;50.658;14.004;2022-11-02T01:23:47;21.08;50.26
65419;DHT22;52027;50.658;14.004;2022-11-02T01:26:13;21.04;50.25
65419;DHT22;52027;50.658;14.004;2022-11-02T01:28:39;21.04;50.23
65419;DHT22;52027;50.658;14.004;2022-11-02T01:31:05;21.06;50.20
65419;DHT22;52027;50.658;14.004;2022-11-02T01:33:31;21.06;50.25
65419;DHT22;52027;50.658;14.004;2022-11-02T01:35:57;21.07;50.18
65419;DHT22;52027;50.658;14.004;2022-11-02T01:38:22;21.06;50.19
65419;DHT22;52027;50.658;14.004;2022-11-02T01:40:48;21.04;50.16
65419;DHT22;52027;50.658;14.004;2022-11-02T01:45:57;21.06;50.14
65419;DHT22;52027;50.658;14.004;2022-11-02T01:48:34;21.04;50.15
65419;DHT22;52027;50.658;14.004;2022-11-02T01:51:03;21.04;50.20
65419;DHT22;52027;50.658;14.004;2022-11-02T01:53:30;21.06;50.20
65419;DHT22;52027;50.658;14.004;2022-11-02T01:55:57;21.04;50.16
65419;DHT22;52027;50.658;14.004;2022-11-02T01:58:24;21.07;50.10
65419;DHT22;52027;50.658;14.004;2022-11-02T02:00:50;21.04;50.10
65419;DHT22;52027;50.658;14.004;2022-11-02T02:03:17;21.06;50.11
65419;DHT22;52027;50.658;14.004;2022-11-02T02:05:48;21.04;50.12
65419;DHT22;52027;50.658;14.004;2022-11-02T02:08:16;21.04;50.10
65419;DHT22;52027;50.658;14.004;2022-11-02T02:10:42;21.04;50.05
65419;DHT22;52027;50.658;14.004;2022-11-02T02:13:08;21.03;50.07
65419;DHT22;52027;50.658;14.004;2022-11-02T02:15:51;21.04;50.09
65419;DHT22;52027;50.658;14.004;2022-11-02T02:18:44;21.00;50.11
65419;DHT22;52027;50.658;14.004;2022-11-02T02:32:24;21.00;50.10
65419;DHT22;52027;50.658;14.004;2022-11-02T02:34:56;21.00;50.09
65419;DHT22;52027;50.658;14.004;2022-11-02T02:37:36;21.00;50.02
65419;DHT22;52027;50.658;14.004;2022-11-02T02:40:10;21.00;50.05
65419;DHT22;52027;50.658;14.004;2022-11-02T02:42:43;21.01;50.10
65419;DHT22;52027;50.658;14.004;2022-11-02T02:45:36;21.01;50.10
65419;DHT22;52027;50.658;14.004;2022-11-02T02:48:11;21.00;50.06
65419;DHT22;52027;50.658;14.004;2022-11-02T02:51:03;20.97;50.05
65419;DHT22;52027;50.658;14.004;2022-11-02T02:53:36;20.98;50.09
65419;DHT22;52027;50.658;14.004;2022-11-02T02:56:03;20.96;50.06
65419;DHT22;52027;50.658;14.004;2022-11-02T02:58:34;20.94;50.06
65419;DHT22;52027;50.658;14.004;2022-11-02T03:01:03;20.98;50.05
65419;DHT22;52027;50.658;14.004;2022-11-02T03:03:32;20.96;50.10
65419;DHT22;52027;50.658;14.004;2022-11-02T03:08:30;20.97;50.02
65419;DHT22;52027;50.658;14.004;2022-11-02T03:11:06;20.97;50.01
65419;DHT22;52027;50.658;14.004;2022-11-02T03:13:45;20.96;50.04
65419;DHT22;52027;50.658;14.004;2022-11-02T03:19:19;20.94;50.02
65419;DHT22;52027;50.658;14.004;2022-11-02T03:21:51;20.96;50.04
65419;DHT22;52027;50.658;14.004;2022-11-02T03:24:29;20.93;50.04
65419;DHT22;52027;50.658;14.004;2022-11-02T03:29:40;20.91;50.08
65419;DHT22;52027;50.658;14.004;2022-11-02T03:32:19;20.94;50.07
65419;DHT22;52027;50.658;14.004;2022-11-02T03:34:58;20.93;50.05
65419;DHT22;52027;50.658;14.004;2022-11-02T03:37:30;20.91;50.03
65419;DHT22;52027;50.658;14.004;2022-11-02T03:40:04;20.96;49.99
65419;DHT22;52027;50.658;14.004;2022-11-02T03:42:32;20.94;49.95
65419;DHT22;52027;50.658;14.004;2022-11-02T03:45:03;20.94;50.01
65419;DHT22;52027;50.658;14.004;2022-11-02T03:47:32;20.96;49.99
65419;DHT22;52027;50.658;14.004;2022-11-02T03:50:00;20.96;50.03
65419;DHT22;52027;50.658;14.004;2022-11-02T03:52:28;20.96;50.00
65419;DHT22;52027;50.658;14.004;2022-11-02T03:55:05;20.94;49.99
65419;DHT22;52027;50.658;14.004;2022-11-02T03:57:40;20.93;49.99
65419;DHT22;52027;50.658;14.004;2022-11-02T04:00:10;20.94;50.03
65419;DHT22;52027;50.658;14.004;2022-11-02T04:02:36;20.94;49.99
65419;DHT22;52027;50.658;14.004;2022-11-02T04:05:03;20.94;50.01
65419;DHT22;52027;50.658;14.004;2022-11-02T04:07:32;20.91;49.94
65419;DHT22;52027;50.658;14.004;2022-11-02T04:10:18;20.93;49.99
65419;DHT22;52027;50.658;14.004;2022-11-02T04:12:43;20.91;49.92
65419;DHT22;52027;50.658;14.004;2022-11-02T04:15:27;20.91;49.89
65419;DHT22;52027;50.658;14.004;2022-11-02T04:17:52;20.94;49.94
65419;DHT22;52027;50.658;14.004;2022-11-02T04:20:36;20.91;49.91
65419;DHT22;52027;50.658;14.004;2022-11-02T04:23:01;20.91;49.93
65419;DHT22;52027;50.658;14.004;2022-11-02T04:25:45;20.91;49.92
65419;DHT22;52027;50.658;14.004;2022-11-02T04:28:10;20.91;49.90
65419;DHT22;52027;50.658;14.004;2022-11-02T04:30:36;20.91;49.98
65419;DHT22;52027;50.658;14.004;2022-11-02T04:33:01;20.91;49.94
65419;DHT22;52027;50.658;14.004;2022-11-02T04:35:45;20.88;49.95
65419;DHT22;52027;50.658;14.004;2022-11-02T04:38:10;20.91;49.94
65419;DHT22;52027;50.658;14.004;2022-11-02T04:40:54;20.91;49.95
65419;DHT22;52027;50.658;14.004;2022-11-02T04:43:39;20.90;49.97
65419;DHT22;52027;50.658;14.004;2022-11-02T04:46:04;20.90;49.97
65419;DHT22;52027;50.658;14.004;2022-11-02T04:48:30;20.91;49.96
65419;DHT22;52027;50.658;14.004;2022-11-02T04:50:57;20.90;49.97
65419;DHT22;52027;50.658;14.004;2022-11-02T04:53:22;20.90;49.89
65419;DHT22;52027;50.658;14.004;2022-11-02T04:55:47;20.93;49.88
65419;DHT22;52027;50.658;14.004;2022-11-02T04:58:13;20.91;49.97
65419;DHT22;52027;50.658;14.004;2022-11-02T05:00:38;20.90;49.88
65419;DHT22;52027;50.658;14.004;2022-11-02T05:03:04;20.91;49.94
65419;DHT22;52027;50.658;14.004;2022-11-02T05:05:30;20.93;49.92
65419;DHT22;52027;50.658;14.004;2022-11-02T05:07:55;20.91;50.03
65419;DHT22;52027;50.658;14.004;2022-11-02T05:10:20;20.91;49.92
65419;DHT22;52027;50.658;14.004;2022-11-02T05:12:46;20.91;49.90
65419;DHT22;52027;50.658;14.004;2022-11-02T05:15:11;20.93;49.92
65419;DHT22;52027;50.658;14.004;2022-11-02T05:17:37;20.93;49.92
65419;DHT22;52027;50.658;14.004;2022-11-02T05:20:02;20.93;49.87
65419;DHT22;52027;50.658;14.004;2022-11-02T05:22:29;20.94;49.84
65419;DHT22;52027;50.658;14.004;2022-11-02T05:24:55;20.93;49.88
65419;DHT22;52027;50.658;14.004;2022-11-02T05:27:20;20.93;49.87
65419;DHT22;52027;50.658;14.004;2022-11-02T05:29:46;20.91;49.87
65419;DHT22;52027;50.658;14.004;2022-11-02T05:32:11;20.93;49.84
65419;DHT22;52027;50.658;14.004;2022-11-02T05:34:36;20.93;49.92
65419;DHT22;52027;50.658;14.004;2022-11-02T05:37:02;20.93;49.95
65419;DHT22;52027;50.658;14.004;2022-11-02T05:39:28;20.93;49.93
65419;DHT22;52027;50.658;14.004;2022-11-02T05:41:53;20.94;49.98
65419;DHT22;52027;50.658;14.004;2022-11-02T05:44:19;20.96;49.98
65419;DHT22;52027;50.658;14.004;2022-11-02T05:46:45;20.93;49.93
65419;DHT22;52027;50.658;14.004;2022-11-02T05:49:11;20.93;49.96
65419;DHT22;52027;50.658;14.004;2022-11-02T05:51:36;20.93;49.96
65419;DHT22;52027;50.658;14.004;2022-11-02T05:54:01;20.91;49.89
65419;DHT22;52027;50.658;14.004;2022-11-02T05:56:27;20.91;49.91
65419;DHT22;52027;50.658;14.004;2022-11-02T05:58:53;20.93;49.92
65419;DHT22;52027;50.658;14.004;2022-11-02T06:01:19;20.91;49.87
65419;DHT22;52027;50.658;14.004;2022-11-02T06:03:45;20.94;49.91
65419;DHT22;52027;50.658;14.004;2022-11-02T06:06:10;20.96;49.91
65419;DHT22;52027;50.658;14.004;2022-11-02T06:08:37;20.93;49.91
65419;DHT22;52027;50.658;14.004;2022-11-02T06:11:10;20.93;49.95
65419;DHT22;52027;50.658;14.004;2022-11-02T06:13:37;20.93;49.88
65419;DHT22;52027;50.658;14.004;2022-11-02T06:16:04;20.94;49.95
65419;DHT22;52027;50.658;14.004;2022-11-02T06:18:30;20.94;49.99
65419;DHT22;52027;50.658;14.004;2022-11-02T06:20:59;20.96;50.03
65419;DHT22;52027;50.658;14.004;2022-11-02T06:23:25;20.94;50.00
65419;DHT22;52027;50.658;14.004;2022-11-02T06:25:55;20.97;50.02
65419;DHT22;52027;50.658;14.004;2022-11-02T06:28:21;20.93;50.05
65419;DHT22;52027;50.658;14.004;2022-11-02T06:30:47;20.96;50.07
65419;DHT22;52027;50.658;14.004;2022-11-02T06:33:14;20.97;50.02
65419;DHT22;52027;50.658;14.004;2022-11-02T06:35:43;20.97;50.07
65419;DHT22;52027;50.658;14.004;2022-11-02T06:38:09;21.00;50.14
65419;DHT22;52027;50.658;14.004;2022-11-02T06:40:35;21.01;50.15
65419;DHT22;52027;50.658;14.004;2022-11-02T06:43:00;20.98;50.13
65419;DHT22;52027;50.658;14.004;2022-11-02T06:45:25;21.00;50.17
65419;DHT22;52027;50.658;14.004;2022-11-02T06:47:51;20.98;50.17
65419;DHT22;52027;50.658;14.004;2022-11-02T06:50:16;21.00;50.16
65419;DHT22;52027;50.658;14.004;2022-11-02T06:52:42;21.01;50.21
65419;DHT22;52027;50.658;14.004;2022-11-02T06:55:09;21.03;50.30
65419;DHT22;52027;50.658;14.004;2022-11-02T06:57:37;21.01;50.32
65419;DHT22;52027;50.658;14.004;2022-11-02T07:00:04;21.03;50.36
65419;DHT22;52027;50.658;14.004;2022-11-02T07:02:30;21.04;50.29
65419;DHT22;52027;50.658;14.004;2022-11-02T07:04:55;21.04;50.30
65419;DHT22;52027;50.658;14.004;2022-11-02T07:07:21;21.06;50.41
65419;DHT22;52027;50.658;14.004;2022-11-02T07:09:46;21.07;50.29
65419;DHT22;52027;50.658;14.004;2022-11-02T07:12:12;21.10;50.29
65419;DHT22;52027;50.658;14.004;2022-11-02T07:14:38;21.10;50.21
65419;DHT22;52027;50.658;14.004;2022-11-02T07:17:03;21.10;50.27
65419;DHT22;52027;50.658;14.004;2022-11-02T07:19:29;21.11;50.60
65419;DHT22;52027;50.658;14.004;2022-11-02T07:21:54;21.12;50.48
65419;DHT22;52027;50.658;14.004;2022-11-02T07:24:19;21.14;50.90
65419;DHT22;52027;50.658;14.004;2022-11-02T07:26:48;21.15;50.90
65419;DHT22;52027;50.658;14.004;2022-11-02T07:29:17;21.12;50.82
65419;DHT22;52027;50.658;14.004;2022-11-02T07:31:43;21.15;50.79
65419;DHT22;52027;50.658;14.004;2022-11-02T07:34:09;21.15;50.81
65419;DHT22;52027;50.658;14.004;2022-11-02T07:36:34;21.18;50.75
65419;DHT22;52027;50.658;14.004;2022-11-02T07:39:00;21.18;50.68
65419;DHT22;52027;50.658;14.004;2022-11-02T07:41:25;21.18;50.67
65419;DHT22;52027;50.658;14.004;2022-11-02T07:43:50;21.18;50.66
65419;DHT22;52027;50.658;14.004;2022-11-02T07:46:16;21.18;50.70
65419;DHT22;52027;50.658;14.004;2022-11-02T07:48:41;21.21;50.70
65419;DHT22;52027;50.658;14.004;2022-11-02T07:51:06;21.23;50.68
65419;DHT22;52027;50.658;14.004;2022-11-02T07:53:33;21.24;50.74
65419;DHT22;52027;50.658;14.004;2022-11-02T08:06:04;21.25;50.71
65419;DHT22;52027;50.658;14.004;2022-11-02T08:08:29;21.23;50.62
65419;DHT22;52027;50.658;14.004;2022-11-02T08:11:02;21.25;50.63
65419;DHT22;52027;50.658;14.004;2022-11-02T08:13:28;21.27;50.66
65419;DHT22;52027;50.658;14.004;2022-11-02T08:15:53;21.27;50.78
65419;DHT22;52027;50.658;14.004;2022-11-02T08:18:21;21.28;50.81
65419;DHT22;52027;50.658;14.004;2022-11-02T08:20:47;21.27;50.71
65419;DHT22;52027;50.658;14.004;2022-11-02T08:23:14;21.32;50.75
65419;DHT22;52027;50.658;14.004;2022-11-02T08:25:40;21.32;50.79
65419;DHT22;52027;50.658;14.004;2022-11-02T08:28:08;21.31;50.67
65419;DHT22;52027;50.658;14.004;2022-11-02T08:30:36;21.34;50.74
65419;DHT22;52027;50.658;14.004;2022-11-02T08:33:04;21.35;50.74
65419;DHT22;52027;50.658;14.004;2022-11-02T08:35:30;21.37;50.66
65419;DHT22;52027;50.658;14.004;2022-11-02T08:37:56;21.38;50.67
65419;DHT22;52027;50.658;14.004;2022-11-02T08:40:21;21.39;50.68
65419;DHT22;52027;50.658;14.004;2022-11-02T08:42:47;21.39;50.77
65419;DHT22;52027;50.658;14.004;2022-11-02T08:45:12;21.39;50.79
65419;DHT22;52027;50.658;14.004;2022-11-02T08:47:41;21.39;50.72
65419;DHT22;52027;50.658;14.004;2022-11-02T08:50:10;21.41;50.71
65419;DHT22;52027;50.658;14.004;2022-11-02T08:52:36;21.44;50.66
65419;DHT22;52027;50.658;14.004;2022-11-02T08:55:02;21.45;50.94
65419;DHT22;52027;50.658;14.004;2022-11-02T08:57:28;21.41;50.78
65419;DHT22;52027;50.658;14.004;2022-11-02T08:59:53;21.45;50.77
65419;DHT22;52027;50.658;14.004;2022-11-02T09:02:19;21.44;50.74
65419;DHT22;52027;50.658;14.004;2022-11-02T09:04:44;21.46;50.79
65419;DHT22;52027;50.658;14.004;2022-11-02T09:07:09;21.48;50.76
65419;DHT22;52027;50.658;14.004;2022-11-02T09:09:34;21.49;50.76
65419;DHT22;52027;50.658;14.004;2022-11-02T09:12:00;21.49;50.63
65419;DHT22;52027;50.658;14.004;2022-11-02T09:14:25;21.51;50.76
65419;DHT22;52027;50.658;14.004;2022-11-02T09:16:54;21.55;50.81
65419;DHT22;52027;50.658;14.004;2022-11-02T09:19:19;21.52;50.80
65419;DHT22;52027;50.658;14.004;2022-11-02T09:21:45;21.56;50.79
65419;DHT22;52027;50.658;14.004;2022-11-02T09:24:12;21.58;50.68
65419;DHT22;52027;50.658;14.004;2022-11-02T09:26:37;21.61;50.68
65419;DHT22;52027;50.658;14.004;2022-11-02T09:29:03;21.63;50.75
65419;DHT22;52027;50.658;14.004;2022-11-02T09:31:28;21.62;50.73
65419;DHT22;52027;50.658;14.004;2022-11-02T09:33:54;21.65;50.71
65419;DHT22;52027;50.658;14.004;2022-11-02T09:36:19;21.67;50.65
65419;DHT22;52027;50.658;14.004;2022-11-02T09:38:45;21.71;50.70
65419;DHT22;52027;50.658;14.004;2022-11-02T09:41:12;21.72;50.65
65419;DHT22;52027;50.658;14.004;2022-11-02T09:43:45;21.73;50.65
65419;DHT22;52027;50.658;14.004;2022-11-02T09:46:24;21.76;50.54
65419;DHT22;52027;50.658;14.004;2022-11-02T09:49:00;21.79;50.54
65419;DHT22;52027;50.658;14.004;2022-11-02T09:51:30;21.78;50.53
65419;DHT22;52027;50.658;14.004;2022-11-02T09:56:37;21.82;50.44
65419;DHT22;52027;50.658;14.004;2022-11-02T09:59:11;21.82;50.42
65419;DHT22;52027;50.658;14.004;2022-11-02T10:04:37;21.85;50.33
65419;DHT22;52027;50.658;14.004;2022-11-02T10:09:48;21.85;50.29
65419;DHT22;52027;50.658;14.004;2022-11-02T10:15:10;21.86;50.21
65419;DHT22;52027;50.658;14.004;2022-11-02T10:17:35;21.86;50.16
65419;DHT22;52027;50.658;14.004;2022-11-02T10:20:27;21.89;50.12
65419;DHT22;52027;50.658;14.004;2022-11-02T10:22:58;21.93;50.18
65419;DHT22;52027;50.658;14.004;2022-11-02T10:25:27;21.92;50.11
65419;DHT22;52027;50.658;14.004;2022-11-02T10:27:58;21.93;50.10
65419;DHT22;52027;50.658;14.004;2022-11-02T10:30:28;21.93;50.12
65419;DHT22;52027;50.658;14.004;2022-11-02T10:32:55;21.90;50.20
65419;DHT22;52027;50.658;14.004;2022-11-02T10:43:24;21.96;50.12
65419;DHT22;52027;50.658;14.004;2022-11-02T10:51:12;22.01;50.05
65419;DHT22;52027;50.658;14.004;2022-11-02T10:53:43;22.06;50.01
65419;DHT22;52027;50.658;14.004;2022-11-02T10:56:19;22.09;49.98
65419;DHT22;52027;50.658;14.004;2022-11-02T10:59:02;22.10;49.87
65419;DHT22;52027;50.658;14.004;2022-11-02T11:04:23;22.18;49.75
65419;DHT22;52027;50.658;14.004;2022-11-02T11:06:49;22.18;49.69
65419;DHT22;52027;50.658;14.004;2022-11-02T11:09:15;22.25;49.70
65419;DHT22;52027;50.658;14.004;2022-11-02T11:12:14;22.28;49.64
65419;DHT22;52027;50.658;14.004;2022-11-02T11:14:48;22.30;49.63
65419;DHT22;52027;50.658;14.004;2022-11-02T11:17:17;22.36;49.72
65419;DHT22;52027;50.658;14.004;2022-11-02T11:19:49;22.33;49.82
65419;DHT22;52027;50.658;14.004;2022-11-02T11:22:37;22.37;49.70
65419;DHT22;52027;50.658;14.004;2022-11-02T11:27:44;22.43;49.67
65419;DHT22;52027;50.658;14.004;2022-11-02T11:30:31;22.47;49.79
65419;DHT22;52027;50.658;14.004;2022-11-02T11:33:22;22.47;49.64
65419;DHT22;52027;50.658;14.004;2022-11-02T11:36:19;22.49;49.84
65419;DHT22;52027;50.658;14.004;2022-11-02T11:38:49;22.49;49.87
65419;DHT22;52027;50.658;14.004;2022-11-02T11:41:16;22.49;49.82
65419;DHT22;52027;50.658;14.004;2022-11-02T11:43:46;22.52;49.70
65419;DHT22;52027;50.658;14.004;2022-11-02T11:46:13;22.55;49.69
65419;DHT22;52027;50.658;14.004;2022-11-02T11:48:54;22.59;49.64
65419;DHT22;52027;50.658;14.004;2022-11-02T11:51:29;22.62;49.69
65419;DHT22;52027;50.658;14.004;2022-11-02T11:54:24;22.64;49.57
65419;DHT22;52027;50.658;14.004;2022-11-02T11:56:58;22.65;49.54
65419;DHT22;52027;50.658;14.004;2022-11-02T11:59:49;22.68;49.47
65419;DHT22;52027;50.658;14.004;2022-11-02T12:04:48;22.72;49.40
65419;DHT22;52027;50.658;14.004;2022-11-02T12:35:05;22.89;49.36
65419;DHT22;52027;50.658;14.004;2022-11-02T12:37:48;22.89;49.33
65419;DHT22;52027;50.658;14.004;2022-11-02T12:40:43;22.89;49.45
65419;DHT22;52027;50.658;14.004;2022-11-02T12:46:00;22.88;49.65
65419;DHT22;52027;50.658;14.004;2022-11-02T12:49:06;22.86;49.60
65419;DHT22;52027;50.658;14.004;2022-11-02T12:51:28;22.88;49.75
65419;DHT22;52027;50.658;14.004;2022-11-02T12:53:58;22.85;49.84
65419;DHT22;52027;50.658;14.004;2022-11-02T12:56:33;22.85;49.87
65419;DHT22;52027;50.658;14.004;2022-11-02T12:59:02;22.83;49.92
65419;DHT22;52027;50.658;14.004;2022-11-02T13:01:38;22.82;49.89
65419;DHT22;52027;50.658;14.004;2022-11-02T13:04:25;22.81;49.94
65419;DHT22;52027;50.658;14.004;2022-11-02T13:06:59;22.83;49.87
65419;DHT22;52027;50.658;14.004;2022-11-02T13:09:39;22.77;49.79
65419;DHT22;52027;50.658;14.004;2022-11-02T13:12:06;22.79;49.74
65419;DHT22;52027;50.658;14.004;2022-11-02T13:14:45;22.76;49.72
65419;DHT22;52027;50.658;14.004;2022-11-02T13:19:44;22.73;49.81
65419;DHT22;52027;50.658;14.004;2022-11-02T13:22:11;22.72;49.78
65419;DHT22;52027;50.658;14.004;2022-11-02T13:24:49;22.75;49.85
65419;DHT22;52027;50.658;14.004;2022-11-02T13:27:45;22.77;49.93
65419;DHT22;52027;50.658;14.004;2022-11-02T13:30:15;22.77;49.87
65419;DHT22;52027;50.658;14.004;2022-11-02T13:32:45;22.79;49.94
65419;DHT22;52027;50.658;14.004;2022-11-02T13:35:17;22.79;49.96
65419;DHT22;52027;50.658;14.004;2022-11-02T13:37:48;22.81;49.94
65419;DHT22;52027;50.658;14.004;2022-11-02T13:49:25;22.83;50.09
65419;DHT22;52027;50.658;14.004;2022-11-02T13:51:57;22.85;50.04
65419;DHT22;52027;50.658;14.004;2022-11-02T13:54:30;22.86;50.09
65419;DHT22;52027;50.658;14.004;2022-11-02T13:56:57;22.89;50.09
65419;DHT22;52027;50.658;14.004;2022-11-02T13:59:29;22.91;50.04
65419;DHT22;52027;50.658;14.004;2022-11-02T14:01:58;22.91;50.05
65419;DHT22;52027;50.658;14.004;2022-11-02T14:04:25;22.95;49.96
65419;DHT22;52027;50.658;14.004;2022-11-02T14:09:25;22.98;49.94
65419;DHT22;52027;50.658;14.004;2022-11-02T14:14:34;22.99;49.85
65419;DHT22;52027;50.658;14.004;2022-11-02T14:19:48;23.02;49.70
65419;DHT22;52027;50.658;14.004;2022-11-02T14:22:15;23.06;49.69
65419;DHT22;52027;50.658;14.004;2022-11-02T14:37:56;23.09;49.51
65419;DHT22;52027;50.658;14.004;2022-11-02T14:45:44;23.07;49.44
65419;DHT22;52027;50.658;14.004;2022-11-02T14:48:13;23.09;49.42
65419;DHT22;52027;50.658;14.004;2022-11-02T14:50:41;23.07;49.47
65419;DHT22;52027;50.658;14.004;2022-11-02T14:53:16;23.09;49.43
65419;DHT22;52027;50.658;14.004;2022-11-02T14:55:51;23.09;49.43
65419;DHT22;52027;50.658;14.004;2022-11-02T14:58:18;23.07;49.44
65419;DHT22;52027;50.658;14.004;2022-11-02T15:19:45;22.95;49.39
65419;DHT22;52027;50.658;14.004;2022-11-02T15:27:49;22.89;49.41
65419;DHT22;52027;50.658;14.004;2022-11-02T15:30:18;22.86;49.45
65419;DHT22;52027;50.658;14.004;2022-11-02T15:32:57;22.85;49.49
65419;DHT22;52027;50.658;14.004;2022-11-02T15:35:25;22.81;49.47
65419;DHT22;52027;50.658;14.004;2022-11-02T15:37:55;22.81;49.49
65419;DHT22;52027;50.658;14.004;2022-11-02T15:40:27;22.77;49.48
65419;DHT22;52027;50.658;14.004;2022-11-02T15:43:00;22.75;49.53
65419;DHT22;52027;50.658;14.004;2022-11-02T15:45:48;22.75;49.58
65419;DHT22;52027;50.658;14.004;2022-11-02T15:56:45;22.57;49.80
65419;DHT22;52027;50.658;14.004;2022-11-02T16:02:28;22.51;49.78
65419;DHT22;52027;50.658;14.004;2022-11-02T16:04:58;22.49;49.84
65419;DHT22;52027;50.658;14.004;2022-11-02T16:07:24;22.47;49.89
65419;DHT22;52027;50.658;14.004;2022-11-02T16:09:51;22.45;49.91
65419;DHT22;52027;50.658;14.004;2022-11-02T16:12:18;22.43;49.94
65419;DHT22;52027;50.658;14.004;2022-11-02T16:14:56;22.41;49.95
65419;DHT22;52027;50.658;14.004;2022-11-02T16:17:26;22.38;49.98
65419;DHT22;52027;50.658;14.004;2022-11-02T16:20:18;22.37;49.97
65419;DHT22;52027;50.658;14.004;2022-11-02T16:22:48;22.36;50.08
65419;DHT22;52027;50.658;14.004;2022-11-02T16:25:34;22.34;50.06
65419;DHT22;52027;50.658;14.004;2022-11-02T16:28:01;22.34;50.10
65419;DHT22;52027;50.658;14.004;2022-11-02T16:30:33;22.30;50.12
65419;DHT22;52027;50.658;14.004;2022-11-02T16:32:59;22.27;50.16
65419;DHT22;52027;50.658;14.004;2022-11-02T16:35:25;22.22;50.11
65419;DHT22;52027;50.658;14.004;2022-11-02T16:37:51;22.25;50.09
65419;DHT22;52027;50.658;14.004;2022-11-02T16:40:17;22.27;50.16
65419;DHT22;52027;50.658;14.004;2022-11-02T16:42:47;22.24;50.16
65419;DHT22;52027;50.658;14.004;2022-11-02T16:45:30;22.24;50.14
65419;DHT22;52027;50.658;14.004;2022-11-02T16:47:56;22.22;50.17
65419;DHT22;52027;50.658;14.004;2022-11-02T16:50:23;22.21;50.19
65419;DHT22;52027;50.658;14.004;2022-11-02T16:52:55;22.21;50.21
65419;DHT22;52027;50.658;14.004;2022-11-02T16:55:44;22.17;50.26
65419;DHT22;52027;50.658;14.004;2022-11-02T16:58:21;22.18;50.23
65419;DHT22;52027;50.658;14.004;2022-11-02T17:01:00;22.17;50.30
65419;DHT22;52027;50.658;14.004;2022-11-02T17:03:32;22.16;50.24
65419;DHT22;52027;50.658;14.004;2022-11-02T17:06:00;22.13;50.26
65419;DHT22;52027;50.658;14.004;2022-11-02T17:08:32;22.13;50.30
65419;DHT22;52027;50.658;14.004;2022-11-02T17:11:01;22.11;50.29
65419;DHT22;52027;50.658;14.004;2022-11-02T17:13:32;22.14;50.32
65419;DHT22;52027;50.658;14.004;2022-11-02T17:16:08;22.10;50.30
65419;DHT22;52027;50.658;14.004;2022-11-02T17:18:34;22.09;50.33
65419;DHT22;52027;50.658;14.004;2022-11-02T17:23:47;22.10;50.29
65419;DHT22;52027;50.658;14.004;2022-11-02T17:31:57;22.04;50.40
65419;DHT22;52027;50.658;14.004;2022-11-02T17:34:25;22.06;50.40
65419;DHT22;52027;50.658;14.004;2022-11-02T17:36:51;22.01;50.40
65419;DHT22;52027;50.658;14.004;2022-11-02T17:39:20;22.04;50.41
65419;DHT22;52027;50.658;14.004;2022-11-02T17:41:51;22.04;50.37
65419;DHT22;52027;50.658;14.004;2022-11-02T17:44:35;22.03;50.47
65419;DHT22;52027;50.658;14.004;2022-11-02T17:47:01;22.03;50.40
65419;DHT22;52027;50.658;14.004;2022-11-02T17:49:26;22.06;50.42
65419;DHT22;52027;50.658;14.004;2022-11-02T17:51:52;22.03;50.36
65419;DHT22;52027;50.658;14.004;2022-11-02T17:54:17;22.03;50.33
65419;DHT22;52027;50.658;14.004;2022-11-02T17:56:43;22.03;50.31
65419;DHT22;52027;50.658;14.004;2022-11-02T17:59:08;22.03;50.32
65419;DHT22;52027;50.658;14.004;2022-11-02T18:01:33;22.04;50.32
65419;DHT22;52027;50.658;14.004;2022-11-02T18:03:59;22.04;50.30
65419;DHT22;52027;50.658;14.004;2022-11-02T18:06:24;22.06;50.28
65419;DHT22;52027;50.658;14.004;2022-11-02T18:08:50;22.04;50.31
65419;DHT22;52027;50.658;14.004;2022-11-02T18:11:34;22.03;50.30
65419;DHT22;52027;50.658;14.004;2022-11-02T18:13:59;22.03;50.25
65419;DHT22;52027;50.658;14.004;2022-11-02T18:16:24;22.01;50.34
65419;DHT22;52027;50.658;14.004;2022-11-02T18:18:50;22.01;50.24
65419;DHT22;52027;50.658;14.004;2022-11-02T18:21:15;22.03;50.24
65419;DHT22;52027;50.658;14.004;2022-11-02T18:23:40;22.01;50.26
65419;DHT22;52027;50.658;14.004;2022-11-02T18:26:08;22.03;50.29
65419;DHT22;52027;50.658;14.004;2022-11-02T18:28:33;22.03;50.16